Time;durP1;ratioP1;P1;durP2;ratioP2;P2;SDS_P1;SDS_P2;PMS_P1;PMS_P2;Temp;Humidity;BMP_temperature;BMP_pressure;BME280_temperature;BME280_humidity;BME280_pressure;Samples;Min_cycle;Max_cycle;Signal;HPM_P1;HPM_P2
2022/01/11 00:01:42;;;;;;;;;21.25;18.00;;;;;1.89;93.88;102922.53;5059117;28;12885;-70
2022/01/11 00:04:15;;;;;;;;;31.50;17.25;;;;;1.83;93.67;102910.38;5064472;28;11585;-69
2022/01/11 00:06:48;;;;;;;;;18.50;17.75;;;;;1.79;93.62;102915.97;5059011;28;11582;-70
2022/01/11 00:09:21;;;;;;;;;20.00;16.50;;;;;1.79;93.53;102914.16;5058594;28;11527;-70
2022/01/11 00:11:48;;;;;;;;;24.00;20.00;;;;;1.76;93.47;102910.81;5064365;28;11629;-70
2022/01/11 00:14:14;;;;;;;;;21.00;19.25;;;;;1.80;93.63;102907.88;5064259;28;11565;-70
2022/01/11 00:16:41;;;;;;;;;21.25;18.75;;;;;1.69;93.67;102910.25;5060950;28;11530;-70
2022/01/11 00:19:07;;;;;;;;;24.75;21.75;;;;;1.72;93.96;102911.88;5076139;28;11643;-69
2022/01/11 00:21:38;;;;;;;;;21.25;19.50;;;;;1.64;93.62;102906.09;5060378;28;11630;-69
2022/01/11 00:26:50;;;;;;;;;24.00;19.00;;;;;1.60;93.83;102913.41;5061995;28;11550;-70
2022/01/11 00:29:17;;;;;;;;;27.75;23.50;;;;;1.56;93.76;102921.66;5065348;28;11534;-70
2022/01/11 00:31:45;;;;;;;;;36.50;28.00;;;;;1.52;94.04;102919.16;5064362;28;11599;-70
2022/01/11 00:34:14;;;;;;;;;22.75;21.00;;;;;1.52;94.36;102923.63;5058134;28;11562;-70
2022/01/11 00:36:42;;;;;;;;;23.25;19.75;;;;;1.56;94.35;102924.31;5063804;28;11645;-72
2022/01/11 00:39:10;;;;;;;;;23.75;21.75;;;;;1.55;93.73;102928.81;5058513;28;12444;-70
2022/01/11 00:41:38;;;;;;;;;21.00;15.75;;;;;1.52;93.75;102932.50;5057353;28;11510;-70
2022/01/11 00:44:06;;;;;;;;;22.25;21.25;;;;;1.56;93.84;102937.66;5048426;28;11553;-70
2022/01/11 00:46:33;;;;;;;;;19.00;17.50;;;;;1.52;93.74;102928.97;5058937;28;11557;-69
2022/01/11 00:49:00;;;;;;;;;24.00;17.00;;;;;1.54;93.91;102924.41;5062687;28;11536;-70
2022/01/11 00:51:27;;;;;;;;;27.50;21.00;;;;;1.54;93.76;102917.25;5061786;28;11543;-69
2022/01/11 00:53:55;;;;;;;;;24.50;20.00;;;;;1.53;93.82;102923.53;5056797;28;11626;-69
2022/01/11 00:56:22;;;;;;;;;18.50;18.25;;;;;1.50;93.63;102912.16;5059793;28;11541;-72
2022/01/11 00:58:49;;;;;;;;;20.75;17.75;;;;;1.54;93.83;102917.25;5036693;28;11525;-72
2022/01/11 01:01:16;;;;;;;;;24.25;20.25;;;;;1.53;94.00;102923.53;5060905;28;11536;-69
2022/01/11 01:03:43;;;;;;;;;23.75;21.25;;;;;1.49;93.75;102921.97;5063855;28;11584;-71
2022/01/11 01:06:10;;;;;;;;;26.25;19.50;;;;;1.49;94.03;102921.97;5063067;28;11517;-69
2022/01/11 01:08:37;;;;;;;;;23.50;19.00;;;;;1.54;94.44;102911.94;5057556;28;11567;-70
2022/01/11 01:11:05;;;;;;;;;29.00;25.50;;;;;1.49;94.07;102908.63;5063533;28;12437;-69
2022/01/11 01:13:38;;;;;;;;;26.50;17.00;;;;;1.56;94.50;102908.31;5061723;28;15888;-70
2022/01/11 01:16:08;;;;;;;;;31.50;25.00;;;;;1.53;94.33;102907.53;5079692;28;11532;-69
2022/01/11 01:18:43;;;;;;;;;34.75;24.25;;;;;1.46;94.01;102915.91;5074858;28;12495;-69
2022/01/11 01:21:09;;;;;;;;;26.50;21.75;;;;;1.45;94.02;102915.03;5079591;28;11645;-69
2022/01/11 01:23:36;;;;;;;;;21.00;18.25;;;;;1.45;94.13;102908.84;5062351;28;11555;-69
2022/01/11 01:26:03;;;;;;;;;26.25;24.25;;;;;1.53;94.50;102917.34;5059792;28;11583;-70
2022/01/11 01:28:29;;;;;;;;;31.75;24.25;;;;;1.50;94.54;102914.84;5058399;28;11591;-70
2022/01/11 01:31:00;;;;;;;;;34.50;21.25;;;;;1.46;94.62;102914.09;5075408;28;11568;-70
2022/01/11 01:33:28;;;;;;;;;27.75;23.00;;;;;1.46;94.66;102924.78;5062181;28;11562;-69
2022/01/11 01:36:01;;;;;;;;;20.00;20.00;;;;;1.52;94.78;102934.31;5059484;28;11536;-70
2022/01/11 01:38:30;;;;;;;;;19.00;18.75;;;;;1.48;94.43;102933.56;5054537;28;11544;-70
2022/01/11 01:41:07;;;;;;;;;19.75;19.00;;;;;1.50;94.70;102942.38;5061548;28;11541;-70
2022/01/11 01:43:33;;;;;;;;;33.00;25.25;;;;;1.42;94.58;102939.22;5054680;28;11558;-70
2022/01/11 01:46:01;;;;;;;;;38.00;24.75;;;;;1.46;94.70;102950.59;5036878;28;11681;-70
2022/01/11 01:48:29;;;;;;;;;24.75;20.50;;;;;1.48;94.75;102960.25;5038608;28;11653;-70
2022/01/11 01:50:56;;;;;;;;;22.50;18.00;;;;;1.58;94.97;102944.66;5061329;28;11539;-70
2022/01/11 01:53:23;;;;;;;;;21.00;18.75;;;;;1.58;94.57;102949.13;5067874;28;12413;-70
2022/01/11 01:55:50;;;;;;;;;24.00;16.75;;;;;1.60;94.62;102952.59;5058099;28;11565;-70
2022/01/11 01:58:18;;;;;;;;;28.75;19.00;;;;;1.59;94.39;102951.72;5051241;28;11595;-70
2022/01/11 02:00:51;;;;;;;;;26.50;21.00;;;;;1.60;94.69;102958.78;5037105;28;11566;-70
2022/01/11 02:03:26;;;;;;;;;19.00;19.00;;;;;1.66;94.79;102955.78;5055265;28;11594;-70
2022/01/11 02:05:54;;;;;;;;;24.75;19.00;;;;;1.65;94.59;102956.72;5067337;28;12583;-70
2022/01/11 02:08:22;;;;;;;;;25.50;23.25;;;;;1.64;94.63;102952.34;5053773;28;11550;-70
2022/01/11 02:10:49;;;;;;;;;20.75;19.00;;;;;1.64;94.67;102955.00;5053727;28;11557;-70
2022/01/11 02:13:16;;;;;;;;;24.50;21.00;;;;;1.69;94.90;102960.09;5071937;28;11590;-70
2022/01/11 02:15:43;;;;;;;;;25.75;20.00;;;;;1.69;94.87;102968.13;5054959;28;11555;-70
2022/01/11 02:18:15;;;;;;;;;22.75;22.50;;;;;1.66;94.63;102960.28;5053478;28;11640;-70
2022/01/11 02:20:45;;;;;;;;;26.00;22.25;;;;;1.65;94.68;102955.88;5054526;28;11557;-70
2022/01/11 02:23:20;;;;;;;;;25.00;20.25;;;;;1.62;94.60;102959.56;5037987;28;11548;-70
2022/01/11 02:25:47;;;;;;;;;24.75;20.75;;;;;1.58;94.40;102962.47;5052828;28;11537;-70
2022/01/11 02:28:20;;;;;;;;;34.75;27.00;;;;;1.58;94.44;102968.69;5052261;28;11677;-71
2022/01/11 02:30:50;;;;;;;;;21.25;18.50;;;;;1.57;94.38;102961.63;5052105;28;11602;-70
2022/01/11 02:33:33;;;;;;;;;23.50;18.00;;;;;1.53;94.24;102963.59;5056897;28;12094;-70
2022/01/11 02:36:18;;;;;;;;;29.50;23.75;;;;;1.50;94.17;102957.53;5071368;28;11553;-70
2022/01/11 02:38:46;;;;;;;;;33.00;24.00;;;;;1.53;94.51;102963.59;5054089;28;11740;-70
2022/01/11 02:41:13;;;;;;;;;29.25;25.00;;;;;1.50;94.45;102965.56;5054295;28;11675;-70
2022/01/11 02:43:43;;;;;;;;;23.75;21.50;;;;;1.53;94.74;102966.25;5053714;28;11612;-70
2022/01/11 02:46:10;;;;;;;;;25.75;22.75;;;;;1.54;95.21;102962.63;5070712;28;11641;-70
2022/01/11 02:48:40;;;;;;;;;28.25;22.75;;;;;1.56;94.95;102959.03;5050386;28;11561;-70
2022/01/11 02:51:07;;;;;;;;;28.50;23.50;;;;;1.49;94.68;102967.34;5053628;28;11538;-70
2022/01/11 02:53:40;;;;;;;;;36.25;25.50;;;;;1.55;95.32;102955.50;5054410;28;11617;-70
2022/01/11 02:56:08;;;;;;;;;33.75;27.00;;;;;1.45;94.74;102952.41;5033825;28;12468;-70
2022/01/11 02:58:35;;;;;;;;;33.00;26.25;;;;;1.56;95.43;102953.69;5054788;28;13702;-70
2022/01/11 03:01:03;;;;;;;;;26.00;21.25;;;;;1.54;95.34;102951.97;5051805;28;11576;-70
2022/01/11 03:03:29;;;;;;;;;32.00;29.00;;;;;1.49;95.37;102943.34;5054879;28;11585;-70
2022/01/11 03:06:00;;;;;;;;;36.00;25.50;;;;;1.49;95.54;102951.34;5056258;28;11676;-70
2022/01/11 03:08:46;;;;;;;;;26.25;24.00;;;;;1.51;95.42;102961.94;5053404;28;11719;-70
2022/01/11 03:11:19;;;;;;;;;36.00;27.00;;;;;1.50;95.65;102960.22;5052356;28;12295;-70
2022/01/11 03:13:48;;;;;;;;;34.50;27.75;;;;;1.49;95.56;102958.47;5054606;28;11600;-70
2022/01/11 03:16:16;;;;;;;;;26.50;23.25;;;;;1.47;95.60;102960.34;5064439;28;11575;-70
2022/01/11 03:18:45;;;;;;;;;27.25;27.00;;;;;1.52;95.56;102969.88;5053517;28;11648;-70
2022/01/11 03:21:13;;;;;;;;;29.50;21.25;;;;;1.60;95.81;102976.59;5068816;28;11677;-70
2022/01/11 03:23:40;;;;;;;;;37.75;28.75;;;;;1.55;95.34;102976.84;5050269;28;11642;-70
2022/01/11 03:26:07;;;;;;;;;29.00;22.50;;;;;1.64;95.43;102983.50;5051981;28;11595;-70
2022/01/11 03:28:35;;;;;;;;;32.50;28.50;;;;;1.56;95.06;102983.06;5054545;28;11584;-70
2022/01/11 03:31:03;;;;;;;;;38.00;30.50;;;;;1.59;95.12;102990.91;5052518;28;11593;-70
2022/01/11 03:33:39;;;;;;;;;33.00;28.75;;;;;1.62;95.16;102988.06;5056132;28;12336;-70
2022/01/11 03:36:06;;;;;;;;;29.00;20.75;;;;;1.69;95.45;102982.31;5057849;28;11578;-70
2022/01/11 03:38:34;;;;;;;;;26.00;23.00;;;;;1.63;95.08;102976.44;5072610;28;11570;-70
2022/01/11 03:41:07;;;;;;;;;32.50;30.50;;;;;1.54;94.71;102975.13;5057130;28;11509;-70
2022/01/11 03:43:33;;;;;;;;;32.25;26.50;;;;;1.46;95.08;102972.81;5041562;28;11562;-70
2022/01/11 03:46:00;;;;;;;;;32.00;24.75;;;;;1.52;95.62;102964.53;5057540;28;11606;-70
2022/01/11 03:48:28;;;;;;;;;41.25;36.50;;;;;1.54;95.35;102967.13;5058375;28;11659;-70
2022/01/11 03:50:58;;;;;;;;;33.75;24.50;;;;;1.49;95.33;102963.81;5057303;28;11573;-70
2022/01/11 03:53:51;;;;;;;;;31.75;26.25;;;;;1.48;95.11;102962.06;5055966;28;11708;-70
2022/01/11 03:56:21;;;;;;;;;31.75;26.75;;;;;1.50;95.20;102958.41;5056433;28;11564;-70
2022/01/11 03:58:54;;;;;;;;;34.00;26.75;;;;;1.41;95.16;102958.84;5068017;28;11576;-70
2022/01/11 04:01:22;;;;;;;;;40.25;30.25;;;;;1.50;95.24;102963.75;5053990;28;11631;-70
2022/01/11 04:03:50;;;;;;;;;30.75;26.50;;;;;1.54;95.67;102967.97;5055273;28;11680;-70
2022/01/11 04:06:17;;;;;;;;;40.25;33.75;;;;;1.58;95.22;102970.47;5057619;28;12340;-70
2022/01/11 04:08:45;;;;;;;;;32.00;31.50;;;;;1.56;95.10;102973.22;5053541;28;12308;-70
2022/01/11 04:11:13;;;;;;;;;33.00;30.25;;;;;1.60;95.30;102976.59;5056070;28;11560;-70
2022/01/11 04:13:40;;;;;;;;;34.00;30.50;;;;;1.60;95.49;102979.28;5057649;28;11595;-71
2022/01/11 04:16:07;;;;;;;;;40.00;29.25;;;;;1.53;95.13;102986.75;5041788;28;11548;-70
2022/01/11 04:18:34;;;;;;;;;33.00;26.50;;;;;1.62;95.64;102988.94;5056195;28;11557;-70
2022/01/11 04:21:02;;;;;;;;;43.25;29.50;;;;;1.57;95.26;102982.97;5056050;28;12433;-70
2022/01/11 04:23:28;;;;;;;;;40.25;32.25;;;;;1.50;94.68;102986.91;5057184;28;11598;-70
2022/01/11 04:25:55;;;;;;;;;34.75;32.75;;;;;1.50;94.86;102989.56;5054046;28;11630;-70
2022/01/11 04:28:25;;;;;;;;;49.50;36.25;;;;;1.52;95.31;102985.00;5057007;28;11679;-70
2022/01/11 04:30:59;;;;;;;;;49.50;31.25;;;;;1.52;95.14;102979.69;5059390;28;11612;-70
2022/01/11 04:33:28;;;;;;;;;34.25;28.00;;;;;1.53;95.19;102976.94;5071171;28;11633;-70
2022/01/11 04:35:56;;;;;;;;;43.50;34.00;;;;;1.54;95.15;102983.13;5057759;28;11685;-70
2022/01/11 04:38:27;;;;;;;;;47.00;39.00;;;;;1.50;95.28;102986.91;5063839;28;11584;-70
2022/01/11 04:40:54;;;;;;;;;44.75;38.50;;;;;1.47;95.19;102989.69;5058489;28;11650;-70
2022/01/11 04:43:22;;;;;;;;;35.75;27.50;;;;;1.47;95.67;102982.56;5054939;28;11569;-70
2022/01/11 04:45:49;;;;;;;;;37.00;29.75;;;;;1.47;95.99;102992.38;5038911;28;11625;-70
2022/01/11 04:48:18;;;;;;;;;37.75;34.00;;;;;1.46;95.78;102996.84;5056851;28;11581;-70
2022/01/11 04:50:48;;;;;;;;;41.50;30.25;;;;;1.51;96.02;102993.97;5058898;28;11663;-71
2022/01/11 04:53:16;;;;;;;;;42.50;28.50;;;;;1.54;96.04;102981.31;5055091;28;11630;-70
2022/01/11 04:55:43;;;;;;;;;46.00;29.00;;;;;1.54;95.86;102975.97;5069250;28;11603;-70
2022/01/11 04:58:09;;;;;;;;;26.25;23.75;;;;;1.58;95.89;102976.69;5049156;28;11683;-70
2022/01/11 05:00:36;;;;;;;;;40.75;37.25;;;;;1.50;95.83;102971.75;5059569;28;11560;-70
2022/01/11 05:03:03;;;;;;;;;35.25;29.00;;;;;1.55;95.91;102974.19;5057570;28;11551;-70
2022/01/11 05:05:30;;;;;;;;;34.00;29.75;;;;;1.59;96.13;102977.56;5058305;28;11613;-69
2022/01/11 05:07:58;;;;;;;;;42.00;35.25;;;;;1.58;95.68;102983.84;5068159;28;11569;-70
2022/01/11 05:10:25;;;;;;;;;38.00;32.50;;;;;1.54;95.76;102985.81;5056477;28;11578;-70
2022/01/11 05:12:54;;;;;;;;;45.50;32.25;;;;;1.59;95.71;102978.41;5055432;28;11551;-70
2022/01/11 05:15:25;;;;;;;;;31.00;27.25;;;;;1.66;95.80;102976.28;5067419;28;11637;-70
2022/01/11 05:17:53;;;;;;;;;32.00;27.25;;;;;1.63;95.51;102988.00;5071616;28;11563;-71
2022/01/11 05:20:19;;;;;;;;;24.50;21.75;;;;;1.63;95.96;102981.78;5056160;28;11591;-70
2022/01/11 05:22:47;;;;;;;;;28.25;24.50;;;;;1.52;94.92;102987.69;5040796;28;11591;-70
2022/01/11 05:25:15;;;;;;;;;36.50;29.50;;;;;1.54;95.56;102992.00;5060480;28;11619;-70
2022/01/11 05:27:41;;;;;;;;;30.75;26.25;;;;;1.57;95.47;102984.78;5076270;28;11604;-72
2022/01/11 05:30:10;;;;;;;;;35.50;30.00;;;;;1.62;95.44;102985.41;5062722;28;11568;-71
2022/01/11 05:32:36;;;;;;;;;44.75;36.25;;;;;1.50;95.13;102993.09;5060619;28;11623;-70
2022/01/11 05:35:05;;;;;;;;;38.25;34.00;;;;;1.53;95.38;102995.63;5040625;28;11592;-69
2022/01/11 05:37:32;;;;;;;;;34.75;30.25;;;;;1.55;95.51;102998.19;5062530;28;11580;-73
2022/01/11 05:39:59;;;;;;;;;40.75;35.50;;;;;1.53;95.27;102997.41;5057192;28;11709;-72
2022/01/11 05:42:27;;;;;;;;;46.00;38.00;;;;;1.51;95.30;102992.16;5060198;28;11593;-71
2022/01/11 05:44:54;;;;;;;;;39.50;35.25;;;;;1.49;95.36;102998.53;5044442;28;11665;-73
2022/01/11 05:47:22;;;;;;;;;46.50;34.00;;;;;1.45;95.56;102997.78;5059801;28;11737;-71
2022/01/11 05:49:49;;;;;;;;;39.25;33.00;;;;;1.48;95.66;102996.75;5058547;28;11583;-70
2022/01/11 05:52:16;;;;;;;;;43.25;31.75;;;;;1.45;95.37;102994.25;5037712;28;11596;-72
2022/01/11 05:54:43;;;;;;;;;35.25;31.25;;;;;1.42;95.59;102999.75;5067484;28;12409;-69
2022/01/11 05:57:10;;;;;;;;;40.00;32.00;;;;;1.25;95.58;103003.28;5069350;28;12039;-72
2022/01/11 05:59:36;;;;;;;;;36.50;30.50;;;;;1.29;96.23;103004.84;5073618;28;11584;-72
2022/01/11 06:02:03;;;;;;;;;29.25;27.50;;;;;1.35;96.12;103001.00;5069132;28;11601;-69
2022/01/11 06:04:30;;;;;;;;;33.75;26.50;;;;;1.32;96.00;103002.03;5078747;28;11678;-72
2022/01/11 06:06:58;;;;;;;;;41.75;35.25;;;;;1.33;95.90;103003.75;5056882;28;11568;-72
2022/01/11 06:09:27;;;;;;;;;45.75;35.50;;;;;1.32;95.90;103006.50;5074384;28;11697;-69
2022/01/11 06:11:55;;;;;;;;;45.75;36.75;;;;;1.32;95.80;103012.69;5059863;28;11588;-72
2022/01/11 06:14:23;;;;;;;;;38.25;34.75;;;;;1.31;95.98;103008.28;5072958;28;11562;-69
2022/01/11 06:16:50;;;;;;;;;25.50;20.00;;;;;1.32;95.79;102998.50;5058901;28;11582;-72
2022/01/11 06:19:16;;;;;;;;;41.50;31.75;;;;;1.39;96.13;103010.56;5042920;28;11538;-72
2022/01/11 06:22:00;;;;;;;;;30.25;27.00;;;;;1.39;95.82;103014.09;5070498;28;11578;-69
2022/01/11 06:24:26;;;;;;;;;37.25;30.00;;;;;1.41;95.62;103030.91;5043308;28;11585;-72
2022/01/11 06:26:53;;;;;;;;;36.00;31.50;;;;;1.44;95.55;103033.41;5069084;28;11562;-71
2022/01/11 06:29:20;;;;;;;;;29.75;26.00;;;;;1.32;95.15;103033.19;5057579;28;11728;-70
2022/01/11 06:31:46;;;;;;;;;35.25;25.00;;;;;1.45;95.66;103035.16;5039117;28;11554;-71
2022/01/11 06:34:13;;;;;;;;;28.25;23.00;;;;;1.49;95.44;103049.22;5056972;28;11702;-68
2022/01/11 06:36:39;;;;;;;;;35.25;30.75;;;;;1.49;95.14;103046.56;5073094;28;11572;-72
2022/01/11 06:39:06;;;;;;;;;31.00;21.25;;;;;1.54;94.92;103041.84;5057592;28;11724;-67
2022/01/11 06:41:35;;;;;;;;;28.00;25.00;;;;;1.51;94.97;103042.88;5056179;28;12260;-72
2022/01/11 06:44:06;;;;;;;;;38.25;28.75;;;;;1.54;94.85;103042.72;5041557;28;11577;-72
2022/01/11 06:46:33;;;;;;;;;32.25;28.25;;;;;1.54;95.08;103040.03;5052630;28;12298;-71
2022/01/11 06:49:01;;;;;;;;;27.75;25.00;;;;;1.56;94.76;103042.63;5040373;28;11694;-72
2022/01/11 06:51:28;;;;;;;;;39.00;30.25;;;;;1.57;94.56;103054.19;5062396;28;11567;-72
2022/01/11 06:53:54;;;;;;;;;38.75;31.25;;;;;1.55;94.52;103046.25;5058770;28;11552;-68
2022/01/11 06:56:22;;;;;;;;;30.50;25.75;;;;;1.54;94.52;103047.19;5060945;28;11646;-71
2022/01/11 06:58:52;;;;;;;;;39.00;32.75;;;;;1.52;94.28;103047.28;5060464;28;11590;-71
2022/01/11 07:01:20;;;;;;;;;33.00;30.75;;;;;1.50;94.12;103050.97;5078999;28;11593;-72
2022/01/11 07:03:49;;;;;;;;;38.75;29.75;;;;;1.51;93.67;103061.56;5068135;28;11567;-70
2022/01/11 07:06:22;;;;;;;;;32.25;28.50;;;;;1.54;94.12;103053.41;5079727;28;11525;-73
2022/01/11 07:08:49;;;;;;;;;40.75;36.25;;;;;1.50;93.87;103054.50;5077128;28;11580;-72
2022/01/11 07:11:18;;;;;;;;;35.00;31.00;;;;;1.52;93.72;103070.44;5050601;28;11644;-72
2022/01/11 07:13:45;;;;;;;;;28.75;21.25;;;;;1.58;93.86;103085.28;5065662;28;11690;-70
2022/01/11 07:16:12;;;;;;;;;24.00;22.00;;;;;1.61;93.48;103091.31;5083617;28;11626;-68
2022/01/11 07:18:38;;;;;;;;;32.00;28.00;;;;;1.57;93.33;103083.53;5071559;28;11578;-72
2022/01/11 07:21:05;;;;;;;;;28.00;24.50;;;;;1.57;93.52;103075.53;5072721;28;11600;-73
2022/01/11 07:23:32;;;;;;;;;26.00;22.00;;;;;1.56;93.52;103080.00;5069527;28;11558;-70
2022/01/11 07:26:02;;;;;;;;;23.00;21.00;;;;;1.58;93.37;103080.78;5069270;28;12461;-71
2022/01/11 07:28:31;;;;;;;;;28.25;23.25;;;;;1.52;92.82;103078.44;5064167;28;11539;-70
2022/01/11 07:31:02;;;;;;;;;35.25;27.25;;;;;1.61;93.38;103083.31;5049094;28;11548;-72
2022/01/11 07:33:32;;;;;;;;;27.00;23.75;;;;;1.62;93.18;103079.69;5067700;28;11653;-73
2022/01/11 07:35:59;;;;;;;;;28.50;26.00;;;;;1.62;92.85;103081.50;5068044;28;11555;-72
2022/01/11 07:38:26;;;;;;;;;36.25;29.50;;;;;1.60;92.57;103084.25;5080587;28;11561;-71
2022/01/11 07:40:52;;;;;;;;;29.50;21.25;;;;;1.58;92.16;103071.94;5063921;28;11589;-70
2022/01/11 07:43:35;;;;;;;;;43.00;29.50;;;;;1.64;92.75;103083.16;5079567;28;11572;-71
2022/01/11 07:46:12;;;;;;;;;29.75;23.50;;;;;1.63;92.29;103088.56;5079664;28;11676;-74
2022/01/11 07:48:44;;;;;;;;;26.50;24.50;;;;;1.63;92.00;103085.91;5063402;28;11650;-72
2022/01/11 07:51:11;;;;;;;;;30.00;23.00;;;;;1.62;91.99;103084.19;5071240;28;11651;-71
2022/01/11 07:53:38;;;;;;;;;35.50;31.50;;;;;1.59;91.84;103092.34;5057735;28;11652;-70
2022/01/11 07:56:11;;;;;;;;;47.00;29.50;;;;;1.62;91.75;103086.84;5086360;28;11546;-73
2022/01/11 07:58:38;;;;;;;;;30.50;23.00;;;;;1.62;91.52;103093.03;5092669;28;11668;-69
2022/01/11 08:01:07;;;;;;;;;29.00;27.50;;;;;1.59;91.24;103090.53;5074222;28;11590;-72
2022/01/11 08:03:38;;;;;;;;;38.00;23.25;;;;;1.61;91.08;103096.66;5082857;28;11595;-71
2022/01/11 08:06:12;;;;;;;;;29.75;25.75;;;;;1.59;91.09;103092.34;5084075;28;11559;-69
2022/01/11 08:08:41;;;;;;;;;28.25;23.25;;;;;1.68;91.31;103092.72;5063368;28;11552;-71
2022/01/11 08:11:10;;;;;;;;;36.00;32.50;;;;;1.60;91.22;103100.28;5051559;28;11580;-73
2022/01/11 08:13:37;;;;;;;;;36.75;31.00;;;;;1.64;91.04;103098.31;5080060;28;11572;-72
2022/01/11 08:16:05;;;;;;;;;24.25;21.00;;;;;1.62;90.90;103092.19;5098164;28;11557;-71
2022/01/11 08:18:32;;;;;;;;;25.50;23.00;;;;;1.55;90.42;103104.97;5060902;28;11779;-73
2022/01/11 08:20:59;;;;;;;;;24.00;22.25;;;;;1.59;90.83;103111.03;5078884;28;11502;-71
2022/01/11 08:23:26;;;;;;;;;33.75;24.75;;;;;1.56;91.00;103113.84;5062020;28;11616;-67
2022/01/11 08:25:53;;;;;;;;;21.50;18.25;;;;;1.60;91.06;103112.75;5075153;28;12779;-71
2022/01/11 08:28:19;;;;;;;;;38.00;26.50;;;;;1.61;91.07;103119.81;5077667;28;11606;-71
2022/01/11 08:30:53;;;;;;;;;32.25;26.25;;;;;1.59;90.16;103121.69;5080654;28;11544;-71
2022/01/11 08:33:19;;;;;;;;;29.75;25.75;;;;;1.61;90.73;103115.34;5049035;28;11576;-70
2022/01/11 08:35:46;;;;;;;;;30.50;26.00;;;;;1.67;90.56;103109.69;5068461;28;11601;-69
2022/01/11 08:38:15;;;;;;;;;32.75;26.00;;;;;1.67;90.38;103120.38;5068647;28;11576;-72
2022/01/11 08:40:44;;;;;;;;;28.75;24.25;;;;;1.69;90.38;103126.50;5054309;28;11590;-70
2022/01/11 08:43:14;;;;;;;;;35.25;22.50;;;;;1.71;90.09;103127.28;5064553;28;11581;-72
2022/01/11 08:45:41;;;;;;;;;23.50;21.75;;;;;1.75;89.81;103122.69;5065234;28;11647;-69
2022/01/11 08:48:12;;;;;;;;;37.00;31.75;;;;;1.81;89.94;103119.72;5063190;28;11538;-71
2022/01/11 08:50:57;;;;;;;;;30.25;24.00;;;;;1.81;89.66;103123.25;5065905;28;11597;-72
2022/01/11 08:53:28;;;;;;;;;37.50;27.00;;;;;1.84;89.39;103127.56;5078673;28;11545;-70
2022/01/11 08:55:57;;;;;;;;;35.25;24.50;;;;;1.88;89.13;103131.81;5063350;28;11566;-70
2022/01/11 08:58:24;;;;;;;;;22.75;18.75;;;;;1.94;89.15;103127.97;5040405;28;11556;-68
2022/01/11 09:00:53;;;;;;;;;22.50;19.00;;;;;1.90;89.12;103118.38;5048518;28;11539;-72
2022/01/11 09:03:23;;;;;;;;;27.00;23.25;;;;;1.96;89.06;103118.91;5057213;28;11657;-71
2022/01/11 09:05:52;;;;;;;;;25.75;25.00;;;;;1.98;88.93;103124.19;5074980;28;11592;-69
2022/01/11 09:08:20;;;;;;;;;32.25;21.00;;;;;2.03;88.68;103131.06;5066949;28;11572;-71
2022/01/11 09:10:47;;;;;;;;;24.75;21.00;;;;;2.07;87.99;103131.75;5056853;28;11553;-70
2022/01/11 09:13:15;;;;;;;;;30.75;21.50;;;;;2.01;88.21;103124.06;5073515;28;11540;-70
2022/01/11 09:15:42;;;;;;;;;31.50;26.50;;;;;1.95;88.36;103127.00;5074577;28;11592;-72
2022/01/11 09:18:10;;;;;;;;;29.50;28.25;;;;;1.97;88.61;103123.31;5075381;28;11659;-71
2022/01/11 09:20:38;;;;;;;;;28.00;23.25;;;;;1.97;88.35;103127.81;5055484;28;11553;-72
2022/01/11 09:23:05;;;;;;;;;23.25;21.75;;;;;1.96;88.73;103128.75;5070385;28;11659;-71
2022/01/11 09:25:34;;;;;;;;;22.25;20.25;;;;;1.89;88.42;103130.88;5069033;28;11656;-72
2022/01/11 09:28:06;;;;;;;;;24.25;19.75;;;;;1.93;88.32;103124.41;5066426;28;11535;-72
2022/01/11 09:30:32;;;;;;;;;25.25;22.50;;;;;1.95;88.31;103124.34;5068050;28;11531;-71
2022/01/11 09:33:01;;;;;;;;;30.25;21.75;;;;;1.98;88.16;103127.72;5058392;28;11576;-71
2022/01/11 09:35:29;;;;;;;;;28.00;26.00;;;;;2.07;87.81;103129.94;5072486;28;11566;-74
2022/01/11 09:38:12;;;;;;;;;30.75;25.75;;;;;2.24;87.56;103118.41;5073981;28;11573;-72
2022/01/11 09:40:40;;;;;;;;;32.25;28.00;;;;;2.34;86.77;103125.00;5050857;28;11540;-71
2022/01/11 09:43:09;;;;;;;;;23.00;19.75;;;;;2.43;86.63;103129.00;5067160;28;12333;-72
2022/01/11 09:45:37;;;;;;;;;28.50;22.00;;;;;2.51;85.98;103132.16;5073059;28;11563;-72
2022/01/11 09:48:05;;;;;;;;;24.00;23.00;;;;;2.59;85.71;103135.28;5071890;28;11708;-72
2022/01/11 09:50:37;;;;;;;;;29.00;24.75;;;;;2.66;85.73;103139.34;5074359;28;11596;-72
2022/01/11 09:53:07;;;;;;;;;24.00;19.00;;;;;2.81;85.17;103131.47;5045278;28;11577;-72
2022/01/11 09:55:36;;;;;;;;;23.75;21.50;;;;;2.89;84.50;103131.91;5058571;28;11555;-72
2022/01/11 09:58:05;;;;;;;;;22.25;19.75;;;;;2.95;83.81;103137.78;5044581;28;11572;-72
2022/01/11 10:00:53;;;;;;;;;27.75;23.00;;;;;3.00;83.33;103137.56;5060294;28;11579;-72
2022/01/11 10:04:01;;;;;;;;;24.50;22.50;;;;;3.14;83.15;103137.66;5060067;28;11533;-72
2022/01/11 10:06:45;;;;;;;;;16.75;16.75;;;;;3.27;82.54;103140.53;5048745;28;12371;-72
2022/01/11 10:09:16;;;;;;;;;31.25;22.00;;;;;3.36;81.54;103140.88;5058617;28;11646;-68
2022/01/11 10:11:45;;;;;;;;;21.75;18.50;;;;;3.47;80.80;103134.03;5058767;28;11545;-72
2022/01/11 10:14:16;;;;;;;;;7.00;0.00;;;;;3.56;80.05;103138.88;5042687;28;11566;-72
2022/01/11 10:16:43;;;;;;;;;27.25;24.50;;;;;3.54;80.03;103138.13;5059513;28;11439;-72
2022/01/11 10:19:23;;;;;;;;;28.25;22.75;;;;;3.21;80.29;103141.72;5075073;28;11646;-71
2022/01/11 10:21:51;;;;;;;;;24.50;20.25;;;;;3.19;81.01;103142.75;5062219;28;12246;-69
2022/01/11 10:24:42;;;;;;;;;28.75;22.00;;;;;3.42;81.27;103150.38;5060829;28;11683;-72
2022/01/11 10:27:25;;;;;;;;;24.25;20.00;;;;;3.29;80.64;103152.88;5047654;28;11535;-72
2022/01/11 10:29:54;;;;;;;;;27.25;22.25;;;;;3.20;80.99;103153.38;5064260;28;11532;-68
2022/01/11 10:32:35;;;;;;;;;19.75;16.75;;;;;3.22;81.40;103142.56;5059325;28;11539;-72
2022/01/11 10:35:13;;;;;;;;;30.00;23.75;;;;;3.22;81.51;103146.16;5054103;28;11533;-73
2022/01/11 10:38:03;;;;;;;;;25.00;19.00;;;;;3.35;80.81;103151.66;5075934;28;11609;-72
2022/01/11 10:40:44;;;;;;;;;20.50;20.50;;;;;3.42;81.27;103142.34;5065890;28;11568;-73
2022/01/11 10:43:20;;;;;;;;;23.25;19.50;;;;;3.48;81.05;103151.84;5078331;28;11674;-69
2022/01/11 10:45:53;;;;;;;;;22.25;17.50;;;;;3.55;81.06;103153.22;5057623;28;11577;-72
2022/01/11 10:48:24;;;;;;;;;24.00;19.00;;;;;3.63;80.71;103150.97;5056072;28;11521;-72
2022/01/11 10:51:01;;;;;;;;;18.25;16.25;;;;;3.59;80.58;103149.44;5060401;28;12370;-73
2022/01/11 10:53:40;;;;;;;;;18.25;17.00;;;;;3.63;80.37;103153.66;5055511;28;12213;-72
2022/01/11 10:56:10;;;;;;;;;23.25;21.50;;;;;3.57;80.16;103157.56;5059906;28;11483;-71
2022/01/11 10:59:09;;;;;;;;;27.00;21.00;;;;;3.61;80.48;103156.41;5075173;28;11591;-71
2022/01/11 11:01:38;;;;;;;;;20.75;17.50;;;;;3.74;80.75;103153.06;5057328;28;11529;-71
2022/01/11 11:04:05;;;;;;;;;19.50;17.50;;;;;3.77;80.23;103150.19;5055289;28;11484;-71
2022/01/11 11:06:32;;;;;;;;;24.00;22.25;;;;;3.76;80.12;103140.44;5056932;28;11572;-71
2022/01/11 11:09:01;;;;;;;;;26.50;23.00;;;;;3.70;79.44;103147.00;5075735;28;11552;-71
2022/01/11 11:11:41;;;;;;;;;17.50;15.75;;;;;3.74;79.84;103145.88;5057408;28;11571;-73
2022/01/11 11:14:55;;;;;;;;;28.25;20.00;;;;;3.86;79.60;103152.34;5059322;28;11493;-73
2022/01/11 11:17:31;;;;;;;;;25.75;24.00;;;;;3.94;79.74;103160.78;5058482;28;11505;-72
2022/01/11 11:20:06;;;;;;;;;25.75;17.75;;;;;3.96;78.68;103164.25;5057427;28;11555;-70
2022/01/11 11:22:33;;;;;;;;;28.00;23.00;;;;;4.04;78.01;103155.78;5054718;28;11584;-72
2022/01/11 11:25:00;;;;;;;;;26.00;18.50;;;;;4.17;78.31;103154.09;5057814;28;11620;-72
2022/01/11 11:27:30;;;;;;;;;22.75;18.00;;;;;4.23;77.83;103162.66;5062339;28;11501;-72
2022/01/11 11:29:59;;;;;;;;;33.00;18.50;;;;;4.48;77.67;103167.41;5074585;28;12275;-73
2022/01/11 11:32:26;;;;;;;;;21.50;17.50;;;;;4.68;77.09;103166.19;5056864;28;11506;-71